createdAt,value
2018-08-12T00:02:22.692Z,2.83
2018-08-12T00:04:55.385Z,2.23
2018-08-12T00:07:24.165Z,2.70
2018-08-12T00:09:52.668Z,2.10
2018-08-12T00:12:21.407Z,2.73
2018-08-12T00:14:49.891Z,2.70
2018-08-12T00:17:18.404Z,2.63
2018-08-12T00:19:46.851Z,2.50
2018-08-12T00:22:15.456Z,2.75
2018-08-12T00:24:43.920Z,2.57
2018-08-12T00:27:12.447Z,2.50
2018-08-12T00:29:40.956Z,2.63
2018-08-12T00:32:09.484Z,2.50
2018-08-12T00:34:37.963Z,3.27
2018-08-12T00:37:07.384Z,2.43
2018-08-12T00:39:35.862Z,2.63
2018-08-12T00:42:04.492Z,2.87
2018-08-12T00:44:32.960Z,2.70
2018-08-12T00:47:02.335Z,3.13
2018-08-12T00:49:30.796Z,2.70
2018-08-12T00:51:59.238Z,2.52
2018-08-12T00:54:27.819Z,2.53
2018-08-12T00:56:56.856Z,2.97
2018-08-12T00:59:25.343Z,2.52
2018-08-12T01:01:53.811Z,2.70
2018-08-12T01:04:22.278Z,2.20
2018-08-12T01:06:50.780Z,2.50
2018-08-12T01:09:19.365Z,2.50
2018-08-12T01:11:47.836Z,2.33
2018-08-12T01:14:16.332Z,2.47
2018-08-12T01:16:44.808Z,2.60
2018-08-12T01:19:13.888Z,2.90
2018-08-12T01:21:42.374Z,2.40
2018-08-12T01:24:11.480Z,2.80
2018-08-12T01:26:39.952Z,2.83
2018-08-12T01:29:08.431Z,2.15
2018-08-12T01:31:36.974Z,2.60
2018-08-12T01:34:05.515Z,2.67
2018-08-12T01:36:34.024Z,3.05
2018-08-12T01:39:02.548Z,2.80
2018-08-12T01:41:30.964Z,2.42
2018-08-12T01:43:59.402Z,2.45
2018-08-12T01:46:27.876Z,3.08
2018-08-12T01:48:56.353Z,2.40
2018-08-12T01:51:24.852Z,2.33
2018-08-12T01:53:53.340Z,2.60
2018-08-12T01:56:21.848Z,3.17
2018-08-12T01:58:50.396Z,2.40
2018-08-12T02:01:18.849Z,2.65
2018-08-12T02:03:47.348Z,2.60
2018-08-12T02:06:15.904Z,2.80
2018-08-12T02:08:44.432Z,2.40
2018-08-12T02:11:13.035Z,2.22
2018-08-12T02:13:41.508Z,2.60
2018-08-12T02:16:09.996Z,2.42
2018-08-12T02:18:38.546Z,2.72
2018-08-12T02:21:06.613Z,2.27
2018-08-12T02:23:35.085Z,2.27
2018-08-12T02:26:03.577Z,2.75
2018-08-12T02:28:32.077Z,2.22
2018-08-12T02:31:00.641Z,2.40
2018-08-12T02:33:29.135Z,2.60
2018-08-12T02:35:57.575Z,2.80
2018-08-12T02:38:26.102Z,2.50
2018-08-12T02:40:55.341Z,2.70
2018-08-12T02:43:23.785Z,2.92
2018-08-12T02:45:52.285Z,2.60
2018-08-12T02:48:20.935Z,2.62
2018-08-12T02:50:49.468Z,2.62
2018-08-12T02:53:17.980Z,2.20
2018-08-12T02:55:51.076Z,2.90
2018-08-12T02:58:20.984Z,2.72
2018-08-12T03:00:49.912Z,2.40
2018-08-12T03:03:18.476Z,2.60
2018-08-12T03:05:46.976Z,2.33
2018-08-12T03:08:15.383Z,2.45
2018-08-12T03:10:43.828Z,2.30
2018-08-12T03:13:12.263Z,2.35
2018-08-12T03:15:40.727Z,2.30
2018-08-12T03:18:09.214Z,2.27
2018-08-12T03:20:37.698Z,2.60
2018-08-12T03:23:06.682Z,2.35
2018-08-12T03:25:35.133Z,2.45
2018-08-12T03:28:03.563Z,2.83
2018-08-12T03:30:32.073Z,2.27
2018-08-12T03:33:00.534Z,2.10
2018-08-12T03:35:29.012Z,2.00
2018-08-12T03:37:57.472Z,2.77
2018-08-12T03:40:25.895Z,2.80
2018-08-12T03:42:54.328Z,2.52
2018-08-12T03:45:22.820Z,3.17
2018-08-12T03:47:51.245Z,2.80
2018-08-12T03:50:19.721Z,2.52
2018-08-12T03:52:48.197Z,2.27
2018-08-12T03:55:16.651Z,2.52
2018-08-12T03:57:45.345Z,2.52
2018-08-12T04:00:16.732Z,2.62
2018-08-12T04:02:47.053Z,2.15
2018-08-12T04:05:16.033Z,3.12
2018-08-12T04:07:44.662Z,2.42
2018-08-12T04:10:13.213Z,2.40
2018-08-12T04:12:41.788Z,2.50
2018-08-12T04:15:11.874Z,3.08
2018-08-12T04:17:41.382Z,2.22
2018-08-12T04:20:10.937Z,2.77
2018-08-12T04:22:39.395Z,2.47
2018-08-12T04:25:07.869Z,2.67
2018-08-12T04:27:36.592Z,2.40
2018-08-12T04:30:06.992Z,2.52
2018-08-12T04:32:35.424Z,2.85
2018-08-12T04:35:04.728Z,2.77
2018-08-12T04:37:33.140Z,2.87
2018-08-12T04:40:02.265Z,3.40
2018-08-12T04:42:30.882Z,2.50
2018-08-12T04:44:59.491Z,2.33
2018-08-12T04:47:27.997Z,2.27
2018-08-12T04:49:56.474Z,2.60
2018-08-12T04:52:24.952Z,2.83
2018-08-12T04:54:53.412Z,2.60
2018-08-12T04:57:21.915Z,2.62
2018-08-12T04:59:50.504Z,2.75
2018-08-12T05:02:19.055Z,2.83
2018-08-12T05:04:47.601Z,2.87
2018-08-12T05:07:16.213Z,2.90
2018-08-12T05:09:45.731Z,2.85
2018-08-12T05:12:14.208Z,3.77
2018-08-12T05:14:42.679Z,2.90
2018-08-12T05:17:11.164Z,3.00
2018-08-12T05:19:39.712Z,3.05
2018-08-12T05:22:08.200Z,2.52
2018-08-12T05:24:36.703Z,3.20
2018-08-12T05:27:05.225Z,3.20
2018-08-12T05:29:33.741Z,3.02
2018-08-12T05:32:02.183Z,2.70
2018-08-12T05:34:30.664Z,2.70
2018-08-12T05:36:59.264Z,2.90
2018-08-12T05:39:27.764Z,3.30
2018-08-12T05:41:56.243Z,3.08
2018-08-12T05:44:24.684Z,2.80
2018-08-12T05:46:53.174Z,3.22
2018-08-12T05:49:21.784Z,3.08
2018-08-12T05:51:50.300Z,3.35
2018-08-12T05:54:18.933Z,2.90
2018-08-12T05:56:47.460Z,3.30
2018-08-12T05:59:15.907Z,3.08
2018-08-12T06:01:44.393Z,2.98
2018-08-12T06:04:13.600Z,2.87
2018-08-12T06:06:42.073Z,2.77
2018-08-12T06:09:11.225Z,3.20
2018-08-12T06:11:39.727Z,2.93
2018-08-12T06:14:08.960Z,3.03
2018-08-12T06:16:37.554Z,2.47
2018-08-12T06:19:06.785Z,2.40
2018-08-12T06:21:35.273Z,3.20
2018-08-12T06:24:04.394Z,2.63
2018-08-12T06:26:32.812Z,2.60
2018-08-12T06:29:01.427Z,2.80
2018-08-12T06:31:29.977Z,2.50
2018-08-12T06:33:58.384Z,2.50
2018-08-12T06:36:26.904Z,3.20
2018-08-12T06:38:55.407Z,2.50
2018-08-12T06:41:23.866Z,2.70
2018-08-12T06:43:52.287Z,2.40
2018-08-12T06:46:21.003Z,2.23
2018-08-12T06:48:49.379Z,2.27
2018-08-12T06:51:18.492Z,2.60
2018-08-12T06:53:47.044Z,2.20
2018-08-12T06:56:15.507Z,1.87
2018-08-12T06:58:43.981Z,2.20
2018-08-12T07:01:12.440Z,2.20
2018-08-12T07:03:40.949Z,2.10
2018-08-12T07:06:09.428Z,2.20
2018-08-12T07:08:37.864Z,1.90
2018-08-12T07:11:06.418Z,2.30
2018-08-12T07:13:34.960Z,1.70
2018-08-12T07:16:03.573Z,2.20
2018-08-12T07:18:32.070Z,1.80
2018-08-12T07:21:00.530Z,2.50
2018-08-12T07:23:28.998Z,2.30
2018-08-12T07:25:57.463Z,2.07
2018-08-12T07:28:26.001Z,2.23
2018-08-12T07:30:54.469Z,1.40
2018-08-12T07:33:23.003Z,2.00
2018-08-12T07:35:51.432Z,1.80
2018-08-12T07:38:19.894Z,1.50
2018-08-12T07:40:48.484Z,1.63
2018-08-12T07:43:16.997Z,1.83
2018-08-12T07:45:45.482Z,1.60
2018-08-12T07:48:14.023Z,1.50
2018-08-12T07:50:42.608Z,1.77
2018-08-12T07:53:11.116Z,2.07
2018-08-12T07:55:39.595Z,1.83
2018-08-12T07:58:08.016Z,1.80
2018-08-12T08:00:36.512Z,1.47
2018-08-12T08:03:05.143Z,1.60
2018-08-12T08:05:33.660Z,1.37
2018-08-12T08:08:02.247Z,1.80
2018-08-12T08:10:30.783Z,1.97
2018-08-12T08:12:59.294Z,1.40
2018-08-12T08:15:27.817Z,1.60
2018-08-12T08:17:56.323Z,2.43
2018-08-12T08:20:24.933Z,1.60
2018-08-12T08:22:53.443Z,1.90
2018-08-12T08:25:22.612Z,2.10
2018-08-12T08:27:51.084Z,2.03
2018-08-12T08:30:19.522Z,1.80
2018-08-12T08:32:48.460Z,2.20
2018-08-12T08:35:17.072Z,2.00
2018-08-12T08:37:45.635Z,2.10
2018-08-12T08:40:15.769Z,2.20
2018-08-12T08:42:44.703Z,1.63
2018-08-12T08:45:17.452Z,1.97
2018-08-12T08:47:47.337Z,2.40
2018-08-12T08:50:17.333Z,1.77
2018-08-12T08:52:45.821Z,2.13
2018-08-12T08:55:15.124Z,3.00
2018-08-12T08:57:44.249Z,2.10
2018-08-12T09:00:16.849Z,2.00
2018-08-12T09:02:48.701Z,1.90
2018-08-12T09:05:18.009Z,2.30
2018-08-12T09:07:46.720Z,2.20
2018-08-12T09:10:16.534Z,2.00
2018-08-12T09:12:45.090Z,2.60
2018-08-12T09:15:15.836Z,2.00
2018-08-12T09:17:45.239Z,1.93
2018-08-12T09:20:17.399Z,2.20
2018-08-12T09:22:45.825Z,1.83
2018-08-12T09:25:14.753Z,2.10
2018-08-12T09:27:43.304Z,2.00
2018-08-12T09:30:20.197Z,1.80
2018-08-12T09:32:49.292Z,1.80
2018-08-12T09:35:17.902Z,1.70
2018-08-12T09:37:46.364Z,1.20
2018-08-12T09:40:16.074Z,1.10
2018-08-12T09:42:45.756Z,1.30
2018-08-12T09:45:16.623Z,1.57
2018-08-12T09:47:45.264Z,1.30
2018-08-12T09:50:15.494Z,1.30
2018-08-12T09:52:44.213Z,1.40
2018-08-12T09:55:13.450Z,1.50
2018-08-12T09:57:42.029Z,1.30
2018-08-12T10:00:16.550Z,1.43
2018-08-12T10:02:45.139Z,1.37
2018-08-12T10:05:13.637Z,1.67
2018-08-12T10:07:42.396Z,1.60
2018-08-12T10:10:10.848Z,1.67
2018-08-12T10:12:39.820Z,1.57
2018-08-12T10:15:08.304Z,1.37
2018-08-12T10:17:37.964Z,1.83
2018-08-12T10:20:07.816Z,1.50
2018-08-12T10:22:36.404Z,1.70
2018-08-12T10:25:06.372Z,2.10
2018-08-12T10:27:34.961Z,1.77
2018-08-12T10:30:04.260Z,1.40
2018-08-12T10:32:32.822Z,1.90
2018-08-12T10:35:01.304Z,1.37
2018-08-12T10:37:29.789Z,1.40
2018-08-12T10:39:58.419Z,2.03
2018-08-12T10:42:26.872Z,1.80
2018-08-12T10:44:55.439Z,1.80
2018-08-12T10:47:23.900Z,2.00
2018-08-12T10:49:52.356Z,1.37
2018-08-12T10:52:21.676Z,1.70
2018-08-12T10:54:50.230Z,1.27
2018-08-12T10:57:18.876Z,1.60
2018-08-12T10:59:47.480Z,1.80
2018-08-12T11:02:16.548Z,1.80
2018-08-12T11:04:45.117Z,1.73
2018-08-12T11:07:13.807Z,1.77
2018-08-12T11:09:42.319Z,1.70
2018-08-12T11:12:10.941Z,1.70
2018-08-12T11:14:39.396Z,1.60
2018-08-12T11:17:07.954Z,1.60
2018-08-12T11:19:36.415Z,1.70
2018-08-12T11:22:04.938Z,1.40
2018-08-12T11:24:34.387Z,1.97
2018-08-12T11:27:03.233Z,1.10
2018-08-12T11:29:31.721Z,1.73
2018-08-12T11:32:00.360Z,1.33
2018-08-12T11:34:28.904Z,1.60
2018-08-12T11:36:57.405Z,1.93
2018-08-12T11:39:25.927Z,1.40
2018-08-12T11:41:54.616Z,1.70
2018-08-12T11:44:23.221Z,1.40
2018-08-12T11:46:51.708Z,1.77
2018-08-12T11:49:20.185Z,1.87
2018-08-12T11:51:48.676Z,1.90
2018-08-12T11:54:17.187Z,1.53
2018-08-12T11:56:46.272Z,1.70
2018-08-12T11:59:14.808Z,1.30
2018-08-12T12:01:43.912Z,1.67
2018-08-12T12:04:12.412Z,1.60
2018-08-12T12:06:40.877Z,1.57
2018-08-12T12:09:10.416Z,1.80
2018-08-12T12:11:38.981Z,1.60
2018-08-12T12:14:07.653Z,1.80
2018-08-12T12:16:36.115Z,1.60
2018-08-12T12:19:04.751Z,1.40
2018-08-12T12:21:33.346Z,1.80
2018-08-12T12:24:01.899Z,1.63
2018-08-12T12:26:30.397Z,2.03
2018-08-12T12:28:58.897Z,1.97
2018-08-12T12:31:27.549Z,1.60
2018-08-12T12:33:56.154Z,1.77
2018-08-12T12:36:24.656Z,1.90
2018-08-12T12:38:53.089Z,1.90
2018-08-12T12:41:21.589Z,1.87
2018-08-12T12:43:50.006Z,1.53
2018-08-12T12:46:18.622Z,1.33
2018-08-12T12:48:47.223Z,1.50
2018-08-12T12:51:15.748Z,1.47
2018-08-12T12:53:44.170Z,1.50
2018-08-12T12:56:12.697Z,1.67
2018-08-12T12:58:41.125Z,1.57
2018-08-12T13:01:09.620Z,1.60
2018-08-12T13:03:38.129Z,1.50
2018-08-12T13:06:06.932Z,1.77
2018-08-12T13:08:35.443Z,1.80
2018-08-12T13:11:03.980Z,1.53
2018-08-12T13:13:32.487Z,1.43
2018-08-12T13:16:00.988Z,1.37
2018-08-12T13:18:29.507Z,1.37
2018-08-12T13:20:58.053Z,1.50
2018-08-12T13:23:27.225Z,1.50
2018-08-12T13:25:55.741Z,1.50
2018-08-12T13:28:24.357Z,1.40
2018-08-12T13:30:52.807Z,1.40
2018-08-12T13:33:21.334Z,1.60
2018-08-12T13:35:49.832Z,1.70
2018-08-12T13:38:18.434Z,1.50
2018-08-12T13:40:46.900Z,1.50
2018-08-12T13:43:15.529Z,1.70
2018-08-12T13:45:44.160Z,1.60
2018-08-12T13:48:12.668Z,1.37
2018-08-12T13:50:41.130Z,1.60
2018-08-12T13:53:09.726Z,1.77
2018-08-12T13:55:38.380Z,1.30
2018-08-12T13:58:07.158Z,1.57
2018-08-12T14:00:35.709Z,1.30
2018-08-12T14:03:04.698Z,1.70
2018-08-12T14:05:33.227Z,1.70
2018-08-12T14:08:01.826Z,1.43
2018-08-12T14:10:30.296Z,1.60
2018-08-12T14:12:58.892Z,1.40
2018-08-12T14:15:27.835Z,1.87
2018-08-12T14:17:56.369Z,1.43
2018-08-12T14:20:24.864Z,1.80
2018-08-12T14:22:53.312Z,1.37
2018-08-12T14:25:21.795Z,1.63
2018-08-12T14:27:50.350Z,1.63
2018-08-12T14:30:20.324Z,1.50
2018-08-12T14:32:49.420Z,1.33
2018-08-12T14:35:18.128Z,1.60
2018-08-12T14:37:46.808Z,1.60
2018-08-12T14:40:15.687Z,1.30
2018-08-12T14:42:44.472Z,1.40
2018-08-12T14:45:14.214Z,1.20
2018-08-12T14:47:43.269Z,1.47
2018-08-12T14:50:13.552Z,1.30
2018-08-12T14:52:43.435Z,1.40
2018-08-12T14:55:12.633Z,1.50
2018-08-12T14:57:42.348Z,1.50
2018-08-12T15:00:15.855Z,1.40
2018-08-12T15:02:45.354Z,1.57
2018-08-12T15:05:13.900Z,1.30
2018-08-12T15:07:42.656Z,1.53
2018-08-12T15:10:11.841Z,1.30
2018-08-12T15:12:41.225Z,1.50
2018-08-12T15:15:11.391Z,1.43
2018-08-12T15:17:41.153Z,1.60
2018-08-12T15:20:10.164Z,1.70
2018-08-12T15:22:38.860Z,1.80
2018-08-12T15:25:09.000Z,1.63
2018-08-12T15:27:37.936Z,2.10
2018-08-12T15:30:07.536Z,1.60
2018-08-12T15:32:36.078Z,1.20
2018-08-12T15:35:05.022Z,1.60
2018-08-12T15:37:33.536Z,1.90
2018-08-12T15:40:02.138Z,1.37
2018-08-12T15:42:31.505Z,1.43
2018-08-12T15:44:59.965Z,2.00
2018-08-12T15:47:28.573Z,2.00
2018-08-12T15:49:57.213Z,1.63
2018-08-12T15:52:25.672Z,1.70
2018-08-12T15:54:54.709Z,1.77
2018-08-12T15:57:23.219Z,1.70
2018-08-12T15:59:52.292Z,1.90
2018-08-12T16:02:21.536Z,1.70
2018-08-12T16:04:50.017Z,1.70
2018-08-12T16:07:18.481Z,1.67
2018-08-12T16:09:47.074Z,1.73
2018-08-12T16:12:15.654Z,1.60
2018-08-12T16:14:44.128Z,1.60
2018-08-12T16:17:12.713Z,1.73
2018-08-12T16:19:41.261Z,1.80
2018-08-12T16:22:09.758Z,1.70
2018-08-12T16:24:38.344Z,1.80
2018-08-12T16:27:08.444Z,2.20
2018-08-12T16:29:37.068Z,2.00
2018-08-12T16:32:05.909Z,2.00
2018-08-12T16:34:34.372Z,2.40
2018-08-12T16:37:03.001Z,2.07
2018-08-12T16:39:31.569Z,2.10
2018-08-12T16:42:00.634Z,2.00
2018-08-12T16:44:29.119Z,1.70
2018-08-12T16:46:58.313Z,1.70
2018-08-12T16:49:27.091Z,1.90
2018-08-12T16:51:55.560Z,2.20
2018-08-12T16:54:24.056Z,1.93
2018-08-12T16:56:52.524Z,2.10
2018-08-12T16:59:21.108Z,2.27
2018-08-12T17:01:49.582Z,1.77
2018-08-12T17:04:18.109Z,1.97
2018-08-12T17:06:46.576Z,1.80
2018-08-12T17:09:15.048Z,1.70
2018-08-12T17:11:43.491Z,1.70
2018-08-12T17:14:11.940Z,1.80
2018-08-12T17:16:40.717Z,2.00
2018-08-12T17:19:09.255Z,1.80
2018-08-12T17:21:37.714Z,1.83
2018-08-12T17:24:06.246Z,1.70
2018-08-12T17:26:34.736Z,1.80
2018-08-12T17:29:03.253Z,2.20
2018-08-12T17:31:31.893Z,2.20
2018-08-12T17:34:00.448Z,2.30
2018-08-12T17:36:28.980Z,2.20
2018-08-12T17:38:58.090Z,2.10
2018-08-12T17:41:26.610Z,2.07
2018-08-12T17:43:55.086Z,1.70
2018-08-12T17:46:23.624Z,1.80
2018-08-12T17:48:52.174Z,2.10
2018-08-12T17:51:20.743Z,1.80
2018-08-12T17:53:49.212Z,1.53
2018-08-12T17:56:17.989Z,1.70
2018-08-12T17:58:46.501Z,1.73
2018-08-12T18:01:15.101Z,2.10
2018-08-12T18:03:43.639Z,1.83
2018-08-12T18:06:12.192Z,1.70
2018-08-12T18:08:40.684Z,1.80
2018-08-12T18:11:09.161Z,1.70
2018-08-12T18:13:37.675Z,1.80
2018-08-12T18:16:06.264Z,1.80
2018-08-12T18:18:35.456Z,2.00
2018-08-12T18:21:03.940Z,1.97
2018-08-12T18:23:32.532Z,1.67
2018-08-12T18:26:01.139Z,1.57
2018-08-12T18:28:29.601Z,1.73
2018-08-12T18:30:58.080Z,1.70
2018-08-12T18:33:26.673Z,2.03
2018-08-12T18:35:55.088Z,1.73
2018-08-12T18:38:23.634Z,1.73
2018-08-12T18:40:52.086Z,1.90
2018-08-12T18:43:20.569Z,1.50
2018-08-12T18:45:49.041Z,1.70
2018-08-12T18:48:17.571Z,1.77
2018-08-12T18:50:46.193Z,1.60
2018-08-12T18:53:14.701Z,1.87
2018-08-12T18:55:43.141Z,1.80
2018-08-12T18:58:11.709Z,2.27
2018-08-12T19:00:40.307Z,1.60
2018-08-12T19:03:08.913Z,1.60
2018-08-12T19:05:37.392Z,2.07
2018-08-12T19:08:05.912Z,1.57
2018-08-12T19:10:34.491Z,2.20
2018-08-12T19:13:02.983Z,1.87
2018-08-12T19:15:31.622Z,2.03
2018-08-12T19:18:00.178Z,1.60
2018-08-12T19:20:28.653Z,1.70
2018-08-12T19:22:57.332Z,1.90
2018-08-12T19:25:25.812Z,2.20
2018-08-12T19:27:54.303Z,2.27
2018-08-12T19:30:22.780Z,1.63
2018-08-12T19:32:51.244Z,2.00
2018-08-12T19:35:19.781Z,2.17
2018-08-12T19:37:48.229Z,1.80
2018-08-12T19:40:16.843Z,2.10
2018-08-12T19:42:45.393Z,2.00
2018-08-12T19:45:13.876Z,2.27
2018-08-12T19:47:42.468Z,1.80
2018-08-12T19:50:10.912Z,1.90
2018-08-12T19:52:39.500Z,1.73
2018-08-12T19:55:08.300Z,2.10
2018-08-12T19:57:36.822Z,1.80
2018-08-12T20:00:07.228Z,2.00
2018-08-12T20:02:36.632Z,2.03
2018-08-12T20:05:05.544Z,2.07
2018-08-12T20:07:34.107Z,2.00
2018-08-12T20:10:02.604Z,1.93
2018-08-12T20:12:31.304Z,2.00
2018-08-12T20:14:59.756Z,2.20
2018-08-12T20:17:28.845Z,1.73
2018-08-12T20:19:57.602Z,2.20
2018-08-12T20:22:26.214Z,1.83
2018-08-12T20:24:54.684Z,2.00
2018-08-12T20:27:23.992Z,1.77
2018-08-12T20:29:52.603Z,1.80
2018-08-12T20:32:21.127Z,1.70
2018-08-12T20:34:49.609Z,2.00
2018-08-12T20:37:18.280Z,1.80
2018-08-12T20:39:46.728Z,1.93
2018-08-12T20:42:15.219Z,2.13
2018-08-12T20:44:43.645Z,2.10
2018-08-12T20:47:12.771Z,2.10
2018-08-12T20:49:41.265Z,1.70
2018-08-12T20:52:09.861Z,2.10
2018-08-12T20:54:38.277Z,1.93
2018-08-12T20:57:06.832Z,1.80
2018-08-12T20:59:35.350Z,1.90
2018-08-12T21:02:04.568Z,1.90
2018-08-12T21:04:33.127Z,1.70
2018-08-12T21:07:01.774Z,2.37
2018-08-12T21:09:30.225Z,2.20
2018-08-12T21:11:58.786Z,2.07
2018-08-12T21:14:27.176Z,2.30
2018-08-12T21:16:55.676Z,1.73
2018-08-12T21:19:24.238Z,2.37
2018-08-12T21:21:52.778Z,2.07
2018-08-12T21:24:21.319Z,2.00
2018-08-12T21:26:49.812Z,1.70
2018-08-12T21:29:18.265Z,1.60
2018-08-12T21:31:46.793Z,2.27
2018-08-12T21:34:15.291Z,1.90
2018-08-12T21:36:43.878Z,1.87
2018-08-12T21:39:13.593Z,2.03
2018-08-12T21:41:42.593Z,2.17
2018-08-12T21:44:11.620Z,2.17
2018-08-12T21:46:40.170Z,1.80
2018-08-12T21:49:08.770Z,2.30
2018-08-12T21:51:37.214Z,2.27
2018-08-12T21:54:05.749Z,2.67
2018-08-12T21:56:34.382Z,2.23
2018-08-12T21:59:02.961Z,2.00
2018-08-12T22:01:31.440Z,1.70
2018-08-12T22:03:59.905Z,2.20
2018-08-12T22:06:29.030Z,1.97
2018-08-12T22:08:57.579Z,2.40
2018-08-12T22:11:26.105Z,2.33
2018-08-12T22:13:54.988Z,2.20
2018-08-12T22:16:23.618Z,2.50
2018-08-12T22:18:52.259Z,2.67
2018-08-12T22:21:20.906Z,2.37
2018-08-12T22:23:49.457Z,2.33
2018-08-12T22:26:17.925Z,2.43
2018-08-12T22:28:46.404Z,2.40
2018-08-12T22:31:14.852Z,2.20
2018-08-12T22:33:43.465Z,2.40
2018-08-12T22:36:11.949Z,2.53
2018-08-12T22:38:40.448Z,2.30
2018-08-12T22:41:08.948Z,2.07
2018-08-12T22:43:38.172Z,2.17
2018-08-12T22:46:06.618Z,2.40
2018-08-12T22:48:35.107Z,2.30
2018-08-12T22:51:03.689Z,2.17
2018-08-12T22:53:32.221Z,2.13
2018-08-12T22:56:00.680Z,2.37
2018-08-12T22:58:29.151Z,2.10
2018-08-12T23:00:57.655Z,2.83
2018-08-12T23:03:26.271Z,1.97
2018-08-12T23:05:54.742Z,2.20
2018-08-12T23:08:23.205Z,1.90
2018-08-12T23:10:51.711Z,2.63
2018-08-12T23:13:20.184Z,2.50
2018-08-12T23:16:10.873Z,2.20
2018-08-12T23:18:39.684Z,2.70
2018-08-12T23:21:09.364Z,2.60
2018-08-12T23:23:38.112Z,2.60
2018-08-12T23:26:06.819Z,2.43
2018-08-12T23:28:35.353Z,2.60
2018-08-12T23:31:04.064Z,2.70
2018-08-12T23:33:32.514Z,2.60
2018-08-12T23:36:01.089Z,2.93
2018-08-12T23:38:30.488Z,3.47
2018-08-12T23:40:58.933Z,4.27
2018-08-12T23:43:28.425Z,4.97
2018-08-12T23:45:57.604Z,4.13
2018-08-12T23:48:26.100Z,3.30
2018-08-12T23:50:54.600Z,3.07
2018-08-12T23:53:23.249Z,2.80
2018-08-12T23:55:51.780Z,2.90
2018-08-12T23:58:20.381Z,3.10
